Time;durP1;ratioP1;P1;durP2;ratioP2;P2;SDS_P1;SDS_P2;PMS_P1;PMS_P2;Temp;Humidity;BMP_temperature;BMP_pressure;BME280_temperature;BME280_humidity;BME280_pressure;Samples;Min_cycle;Max_cycle;Signal;HPM_P1;HPM_P2
2023/10/23 00:00:20;;;;;;;7.35;5.78;;;;;;;10.50;100.00;101198.97;5020654;28;20049;-68
2023/10/23 00:02:45;;;;;;;6.07;5.45;;;;;;;10.56;100.00;101211.63;5030285;28;20475;-68
2023/10/23 00:05:11;;;;;;;7.70;5.68;;;;;;;10.49;100.00;101205.28;5019880;28;20021;-67
2023/10/23 00:07:36;;;;;;;7.85;5.85;;;;;;;10.52;100.00;101218.25;5022917;28;20017;-67
2023/10/23 00:10:02;;;;;;;7.65;5.60;;;;;;;10.53;100.00;101219.91;5019639;28;20107;-68
2023/10/23 00:12:27;;;;;;;7.22;5.60;;;;;;;10.52;100.00;101218.25;5029003;28;20533;-68
2023/10/23 00:14:53;;;;;;;6.97;5.80;;;;;;;10.51;100.00;101216.59;5023124;28;20045;-68
2023/10/23 00:17:18;;;;;;;11.60;6.35;;;;;;;10.51;100.00;101220.06;5013189;28;20418;-68
2023/10/23 00:19:43;;;;;;;7.30;5.40;;;;;;;10.50;100.00;101220.22;5018404;28;20017;-68
2023/10/23 00:22:09;;;;;;;7.10;5.50;;;;;;;10.48;100.00;101223.03;5017156;28;20386;-68
2023/10/23 00:24:34;;;;;;;7.32;5.68;;;;;;;10.49;100.00;101223.88;5025495;28;20072;-68
2023/10/23 00:26:59;;;;;;;6.93;5.78;;;;;;;10.50;100.00;101217.56;5021822;28;20574;-68
2023/10/23 00:29:24;;;;;;;7.63;5.70;;;;;;;10.48;100.00;101215.09;5017700;28;20546;-68
2023/10/23 00:31:50;;;;;;;8.77;5.88;;;;;;;10.48;100.00;101222.22;5023188;28;20029;-68
2023/10/23 00:34:15;;;;;;;9.00;6.68;;;;;;;10.46;100.00;101219.72;5027701;28;20475;-68
2023/10/23 00:36:40;;;;;;;8.85;6.15;;;;;;;10.50;100.00;101220.22;5035683;28;20032;-67
2023/10/23 00:39:05;;;;;;;6.72;5.97;;;;;;;10.38;100.00;101190.47;5027633;28;20029;-68
2023/10/23 00:41:31;;;;;;;10.07;6.82;;;;;;;10.47;100.00;101218.72;5033901;28;20083;-68
2023/10/23 00:43:56;;;;;;;9.95;6.32;;;;;;;10.50;100.00;101214.91;5023788;28;20619;-68
2023/10/23 00:46:23;;;;;;;8.68;6.60;;;;;;;10.36;100.00;101202.25;5033819;28;20041;-68
2023/10/23 00:48:50;;;;;;;8.57;6.97;;;;;;;10.49;100.00;101229.19;5016042;28;20112;-68
2023/10/23 00:51:17;;;;;;;9.63;6.68;;;;;;;10.48;100.00;101219.56;5028278;28;20026;-67
2023/10/23 00:53:43;;;;;;;11.85;6.72;;;;;;;10.48;100.00;101228.34;5029371;28;20020;-67
2023/10/23 00:56:09;;;;;;;10.35;7.10;;;;;;;10.48;100.00;101224.88;5028666;28;20112;-68
2023/10/23 00:58:38;;;;;;;9.57;7.18;;;;;;;10.46;100.00;101232.16;5017525;28;20108;-68
2023/10/23 01:01:04;;;;;;;;;;;;;;;10.50;100.00;101229.03;5040591;28;20028;-68
2023/10/23 01:03:29;;;;;;;14.30;7.45;;;;;;;10.44;100.00;101231.50;5028772;28;20563;-68
2023/10/23 01:05:55;;;;;;;10.85;7.53;;;;;;;10.36;100.00;101229.63;5025188;28;20439;-68
2023/10/23 01:08:20;;;;;;;10.90;7.60;;;;;;;10.36;100.00;101234.94;5017355;28;20543;-68
2023/10/23 01:10:46;;;;;;;9.60;7.35;;;;;;;10.34;100.00;101236.91;5024020;28;20021;-68
2023/10/23 01:13:12;;;;;;;12.05;7.57;;;;;;;10.32;100.00;101240.72;5018106;28;20645;-68
2023/10/23 01:15:37;;;;;;;13.90;7.60;;;;;;;10.30;100.00;101245.34;5035816;28;20511;-68
2023/10/23 01:18:03;;;;;;;11.55;7.57;;;;;;;10.25;100.00;101245.84;5034684;28;20025;-68
2023/10/23 01:20:30;;;;;;;10.88;7.70;;;;;;;10.24;100.00;101244.19;5022397;28;20051;-68
2023/10/23 01:22:58;;;;;;;13.35;7.63;;;;;;;10.23;100.00;101246.00;5027431;28;20037;-68
2023/10/23 01:25:24;;;;;;;11.80;7.72;;;;;;;10.22;100.00;101244.34;5030135;28;20080;-68
2023/10/23 01:27:49;;;;;;;11.93;7.70;;;;;;;10.19;100.00;101238.47;5016837;28;20033;-68
2023/10/23 01:30:15;;;;;;;13.15;8.02;;;;;;;10.17;100.00;101241.28;5025864;28;20017;-68
2023/10/23 01:32:41;;;;;;;12.70;7.60;;;;;;;10.14;100.00;101236.31;5027411;28;20037;-67
2023/10/23 01:35:06;;;;;;;12.75;7.45;;;;;;;10.16;100.00;101247.59;5023796;28;20120;-68
2023/10/23 01:37:31;;;;;;;10.18;7.13;;;;;;;10.13;100.00;101250.56;5023618;28;21438;-68
2023/10/23 01:39:57;;;;;;;12.48;7.55;;;;;;;10.12;100.00;101242.72;5035036;28;20526;-68
2023/10/23 01:42:22;;;;;;;9.85;6.60;;;;;;;10.09;100.00;101238.56;5018196;28;20577;-68
2023/10/23 01:44:47;;;;;;;7.55;6.60;;;;;;;10.06;100.00;101238.91;5026566;28;20041;-68
2023/10/23 01:47:13;;;;;;;11.52;6.78;;;;;;;10.00;100.00;101233.38;5024798;28;20048;-67
2023/10/23 01:49:38;;;;;;;12.98;7.07;;;;;;;9.97;100.00;101239.84;5018515;28;20391;-68
2023/10/23 01:52:04;;;;;;;9.13;6.90;;;;;;;9.97;100.00;101236.38;5022589;28;20022;-68
2023/10/23 01:54:29;;;;;;;13.48;7.28;;;;;;;9.94;100.00;101230.38;5026159;28;20379;-68
2023/10/23 01:56:54;;;;;;;13.13;7.18;;;;;;;9.83;100.00;101216.53;5026796;28;20031;-68
2023/10/23 01:59:20;;;;;;;10.43;6.25;;;;;;;9.82;100.00;101230.78;5031127;28;20029;-67
2023/10/23 02:01:45;;;;;;;7.20;5.53;;;;;;;9.75;100.00;101246.50;5023695;28;20021;-68
2023/10/23 02:04:10;;;;;;;10.00;6.90;;;;;;;9.81;100.00;101237.06;5027049;28;20024;-68
2023/10/23 02:06:36;;;;;;;8.80;6.90;;;;;;;9.76;100.00;101234.06;5039129;28;20025;-68
2023/10/23 02:09:02;;;;;;;9.48;6.95;;;;;;;9.64;100.00;101217.59;5019641;28;20025;-68
2023/10/23 02:11:28;;;;;;;9.38;6.60;;;;;;;9.76;100.00;101231.41;5026814;28;20022;-68
2023/10/23 02:13:53;;;;;;;10.65;7.07;;;;;;;9.75;100.00;101241.19;5018142;28;20068;-69
2023/10/23 02:16:18;;;;;;;11.45;6.07;;;;;;;9.72;100.00;101240.66;5028830;28;20079;-68
2023/10/23 02:18:43;;;;;;;10.35;6.20;;;;;;;9.76;100.00;101247.31;5031105;28;20064;-68
2023/10/23 02:21:09;;;;;;;9.45;6.57;;;;;;;9.74;100.00;101244.84;5013635;28;20033;-68
2023/10/23 02:23:34;;;;;;;7.82;6.07;;;;;;;9.72;100.00;101241.50;5022655;28;20053;-67
2023/10/23 02:26:00;;;;;;;7.57;6.10;;;;;;;9.69;100.00;101248.94;5029924;28;20033;-68
2023/10/23 02:28:26;;;;;;;7.43;5.78;;;;;;;9.66;100.00;101259.84;5029421;28;20117;-68
2023/10/23 02:30:51;;;;;;;10.50;5.80;;;;;;;9.61;100.00;101258.50;5032251;28;20437;-68
2023/10/23 02:33:17;;;;;;;7.55;6.05;;;;;;;9.62;100.00;101257.53;5022759;28;20482;-68
2023/10/23 02:35:43;;;;;;;12.05;6.45;;;;;;;9.61;100.00;101255.84;5026635;28;20051;-68
2023/10/23 02:38:09;;;;;;;10.93;6.38;;;;;;;9.60;100.00;101258.66;5018509;28;20021;-68
2023/10/23 02:40:34;;;;;;;9.23;6.35;;;;;;;9.52;100.00;101250.63;5028324;28;20090;-68
2023/10/23 02:42:59;;;;;;;9.20;6.45;;;;;;;9.54;100.00;101262.78;5021371;28;20105;-68
2023/10/23 02:45:25;;;;;;;10.15;6.05;;;;;;;9.56;100.00;101266.09;5023464;28;20084;-68
2023/10/23 02:47:50;;;;;;;9.70;6.10;;;;;;;9.54;100.00;101264.56;5023739;28;20548;-68
2023/10/23 02:50:15;;;;;;;13.23;6.38;;;;;;;9.53;100.00;101268.19;5025928;28;20052;-68
2023/10/23 02:52:40;;;;;;;11.00;6.97;;;;;;;9.53;100.00;101269.03;5012158;28;20037;-68
2023/10/23 02:55:06;;;;;;;13.02;6.57;;;;;;;9.51;100.00;101260.41;5028580;28;20025;-68
2023/10/23 02:57:31;;;;;;;12.45;6.57;;;;;;;9.54;100.00;101270.72;5024198;28;20037;-68
2023/10/23 02:59:57;;;;;;;11.15;6.45;;;;;;;9.53;100.00;101268.19;5026257;28;20040;-68
2023/10/23 03:02:22;;;;;;;15.18;7.22;;;;;;;9.51;100.00;101263.03;5011714;28;20029;-68
2023/10/23 03:04:48;;;;;;;10.35;6.82;;;;;;;9.50;100.00;101265.84;5026416;28;20086;-68
2023/10/23 03:07:13;;;;;;;12.35;7.60;;;;;;;9.48;100.00;101260.69;5020738;28;20040;-68
2023/10/23 03:09:38;;;;;;;10.10;6.88;;;;;;;9.48;100.00;101266.00;5015007;28;20581;-67
2023/10/23 03:12:04;;;;;;;11.02;7.05;;;;;;;9.49;100.00;101274.78;5017826;28;20379;-67
2023/10/23 03:14:29;;;;;;;9.90;6.57;;;;;;;9.45;100.00;101274.25;5017019;28;20534;-68
2023/10/23 03:16:55;;;;;;;10.48;6.82;;;;;;;9.42;100.00;101271.09;5016109;28;20439;-68
2023/10/23 03:19:22;;;;;;;12.15;6.75;;;;;;;9.38;100.00;101267.91;5011467;28;20021;-68
2023/10/23 03:21:48;;;;;;;9.50;6.45;;;;;;;9.31;100.00;101275.66;5017702;28;20021;-68
2023/10/23 03:24:13;;;;;;;9.68;6.85;;;;;;;9.35;100.00;101264.75;5021957;28;20036;-68
2023/10/23 03:26:38;;;;;;;11.98;7.05;;;;;;;9.35;100.00;101262.91;5033491;28;20406;-67
2023/10/23 03:29:04;;;;;;;10.60;7.00;;;;;;;9.35;100.00;101265.56;5031332;28;20035;-68
2023/10/23 03:31:32;;;;;;;13.90;7.30;;;;;;;9.31;100.00;101265.06;5025100;28;20034;-68
2023/10/23 03:33:58;;;;;;;15.32;6.68;;;;;;;9.28;100.00;101272.47;5011989;28;20029;-67
2023/10/23 03:36:23;;;;;;;11.93;6.80;;;;;;;9.24;100.00;101269.25;5024018;28;20075;-67
2023/10/23 03:38:48;;;;;;;10.95;6.50;;;;;;;9.24;100.00;101279.88;5019819;28;20025;-68
2023/10/23 03:41:14;;;;;;;11.93;6.72;;;;;;;9.17;100.00;101267.38;5026135;28;20134;-67
2023/10/23 03:43:40;;;;;;;8.52;6.32;;;;;;;9.19;100.00;101270.72;5010939;28;20021;-68
2023/10/23 03:46:05;;;;;;;9.43;6.43;;;;;;;9.20;100.00;101275.03;5022107;28;20087;-67
2023/10/23 03:48:34;;;;;;;8.18;6.50;;;;;;;9.18;100.00;101279.66;5013989;28;20487;-68
2023/10/23 03:51:00;;;;;;;10.15;5.82;;;;;;;9.13;100.00;101279.25;5007756;28;20064;-68
2023/10/23 03:53:25;;;;;;;9.77;5.80;;;;;;;9.10;100.00;101274.28;5011776;28;20037;-68
2023/10/23 03:55:51;;;;;;;8.35;5.80;;;;;;;9.09;100.00;101281.38;5014684;28;20022;-67
2023/10/23 03:58:16;;;;;;;9.05;6.40;;;;;;;9.12;100.00;101281.09;5019859;28;20422;-68
2023/10/23 04:00:41;;;;;;;11.70;6.40;;;;;;;9.08;100.00;101276.25;5013861;28;20022;-68
2023/10/23 04:03:06;;;;;;;8.32;6.55;;;;;;;9.17;100.00;101277.97;5017397;28;20014;-68
2023/10/23 04:05:32;;;;;;;9.55;5.82;;;;;;;9.15;100.00;101272.84;5019431;28;20021;-68
2023/10/23 04:07:57;;;;;;;9.85;6.80;;;;;;;9.15;100.00;101266.69;5030817;28;20559;-68
2023/10/23 04:10:22;;;;;;;13.30;7.57;;;;;;;9.11;100.00;101279.41;5015026;28;20131;-68
2023/10/23 04:12:48;;;;;;;8.10;5.93;;;;;;;9.15;100.00;101283.44;5016962;28;20545;-68
2023/10/23 04:15:13;;;;;;;8.15;5.22;;;;;;;9.14;100.00;101295.00;5024143;28;20104;-68
2023/10/23 04:17:38;;;;;;;11.82;5.97;;;;;;;9.13;100.00;101290.69;5012672;28;20620;-68
2023/10/23 04:20:04;;;;;;;8.73;5.28;;;;;;;9.11;100.00;101291.84;5021603;28;20392;-67
2023/10/23 04:22:30;;;;;;;10.00;6.63;;;;;;;9.13;100.00;101280.09;5027155;28;20025;-68
2023/10/23 04:24:55;;;;;;;13.35;7.97;;;;;;;9.15;100.00;101285.25;5026188;28;20489;-68
2023/10/23 04:27:21;;;;;;;13.63;7.72;;;;;;;9.16;100.00;101282.44;5030337;28;20056;-68
2023/10/23 04:29:46;;;;;;;14.23;7.80;;;;;;;9.18;100.00;101284.94;5036242;28;20049;-68
2023/10/23 04:32:12;;;;;;;13.95;8.25;;;;;;;9.18;100.00;101280.47;5026457;28;20053;-68
2023/10/23 04:34:37;;;;;;;14.50;7.75;;;;;;;9.15;100.00;101283.44;5022946;28;20035;-68
2023/10/23 04:37:03;;;;;;;16.90;7.97;;;;;;;9.11;100.00;101284.72;5037465;28;20068;-67
2023/10/23 04:39:28;;;;;;;15.43;8.07;;;;;;;9.14;100.00;101288.88;5024796;28;20022;-68
2023/10/23 04:41:53;;;;;;;17.17;8.50;;;;;;;9.13;100.00;101287.22;5015340;28;20052;-67
2023/10/23 04:44:19;;;;;;;14.65;8.10;;;;;;;9.13;100.00;101293.34;5013820;28;20026;-68
2023/10/23 04:46:45;;;;;;;14.88;8.10;;;;;;;9.09;100.00;101283.19;5013901;28;20033;-68
2023/10/23 04:49:11;;;;;;;14.70;7.97;;;;;;;9.04;100.00;101288.97;5027989;28;20037;-68
2023/10/23 04:51:37;;;;;;;15.13;7.72;;;;;;;9.02;100.00;101280.31;5028141;28;20033;-67
2023/10/23 04:54:02;;;;;;;12.02;7.30;;;;;;;8.99;100.00;101286.75;5021814;28;20025;-68
2023/10/23 04:56:27;;;;;;;12.30;7.32;;;;;;;8.98;100.00;101298.34;5029646;28;20057;-67
2023/10/23 04:58:53;;;;;;;10.00;7.53;;;;;;;9.00;100.00;101285.78;5024222;28;20041;-68
2023/10/23 05:01:18;;;;;;;13.68;6.95;;;;;;;8.94;100.00;101275.75;5016235;28;20498;-68
2023/10/23 05:03:43;;;;;;;13.18;7.70;;;;;;;8.93;100.00;101283.84;5020838;28;20101;-68
2023/10/23 05:06:09;;;;;;;12.88;7.00;;;;;;;8.90;100.00;101282.34;5026137;28;20029;-67
2023/10/23 05:08:34;;;;;;;13.70;7.93;;;;;;;8.92;100.00;101284.84;5012062;28;20072;-68
2023/10/23 05:11:07;;;;;;;13.68;7.07;;;;;;;8.87;100.00;101277.34;5017718;28;20033;-68
2023/10/23 05:13:32;;;;;;;12.05;7.43;;;;;;;8.90;100.00;101276.19;5015828;28;20025;-68
2023/10/23 05:16:05;;;;;;;14.60;7.60;;;;;;;8.87;100.00;101274.69;5020875;28;20080;-68
2023/10/23 05:18:33;;;;;;;11.85;7.10;;;;;;;8.86;100.00;101286.25;5014628;28;20021;-67
2023/10/23 05:21:05;;;;;;;20.30;7.97;;;;;;;8.83;100.00;101283.09;5016356;28;20084;-67
2023/10/23 05:23:31;;;;;;;10.77;6.55;;;;;;;8.78;100.00;101280.06;5032642;28;20045;-67
2023/10/23 05:25:56;;;;;;;12.52;7.30;;;;;;;8.75;100.00;101277.69;5033526;28;20032;-67
2023/10/23 05:28:22;;;;;;;11.00;5.38;;;;;;;8.71;100.00;101278.97;5030136;28;20800;-67
2023/10/23 05:30:50;;;;;;;15.20;7.22;;;;;;;8.68;100.00;101288.06;5019357;28;20033;-68
2023/10/23 05:33:15;;;;;;;19.20;7.45;;;;;;;8.64;100.00;101276.91;5017418;28;20018;-67
2023/10/23 05:35:40;;;;;;;20.83;8.52;;;;;;;8.64;100.00;101278.72;5014408;28;20028;-68
2023/10/23 05:38:05;;;;;;;39.00;26.30;;;;;;;8.60;100.00;101274.69;5023998;28;20076;-67
2023/10/23 05:40:31;;;;;;;10.38;7.10;;;;;;;8.62;100.00;101273.56;5018685;28;20041;-68
2023/10/23 05:42:56;;;;;;;25.40;7.28;;;;;;;8.63;100.00;101269.94;5009990;28;20026;-67
2023/10/23 05:45:21;;;;;;;25.15;7.32;;;;;;;8.60;100.00;101272.88;5013868;28;20030;-67
2023/10/23 05:47:47;;;;;;;29.55;8.38;;;;;;;8.58;100.00;101268.72;5012854;28;20072;-68
2023/10/23 05:50:12;;;;;;;42.05;8.55;;;;;;;8.49;100.00;101273.09;5021629;28;20021;-67
2023/10/23 05:52:37;;;;;;;59.72;11.32;;;;;;;8.58;100.00;101279.31;5014848;28;20029;-68
2023/10/23 05:55:04;;;;;;;117.10;10.02;;;;;;;8.48;100.00;101275.88;5022874;28;20029;-68
2023/10/23 05:57:31;;;;;;;86.47;7.80;;;;;;;8.51;100.00;101284.34;5021208;28;20732;-67
2023/10/23 05:59:56;;;;;;;100.47;7.63;;;;;;;8.48;100.00;101289.94;5014911;28;20022;-67
2023/10/23 06:02:21;;;;;;;37.85;6.60;;;;;;;8.45;100.00;101294.72;5012116;28;20018;-67
2023/10/23 06:04:47;;;;;;;71.05;7.40;;;;;;;8.39;100.00;101288.19;5017835;28;20032;-68
2023/10/23 06:07:12;;;;;;;68.85;8.13;;;;;;;8.37;100.00;101285.66;5017065;28;20032;-68
2023/10/23 06:09:38;;;;;;;61.33;8.85;;;;;;;8.38;100.00;101289.13;5017892;28;20033;-67
2023/10/23 06:12:04;;;;;;;94.80;18.17;;;;;;;8.34;100.00;101288.59;5025271;28;20537;-67
2023/10/23 06:14:29;;;;;;;53.63;9.98;;;;;;;8.34;100.00;101296.53;5029461;28;20026;-68
2023/10/23 06:16:55;;;;;;;125.30;31.48;;;;;;;8.34;100.00;101291.25;5022703;28;20041;-67
2023/10/23 06:19:20;;;;;;;51.08;10.07;;;;;;;8.31;100.00;101293.31;5020085;28;20056;-67
2023/10/23 06:21:45;;;;;;;36.63;8.20;;;;;;;8.30;100.00;101289.84;5025182;28;20022;-68
2023/10/23 06:24:11;;;;;;;62.25;6.65;;;;;;;8.24;100.00;101297.53;5025037;28;20045;-68
2023/10/23 06:26:36;;;;;;;32.45;6.45;;;;;;;8.23;100.00;101294.03;5024125;28;20437;-68
2023/10/23 06:29:01;;;;;;;22.40;5.78;;;;;;;8.21;100.00;101301.28;5036114;28;20483;-67
2023/10/23 06:31:27;;;;;;;30.70;6.40;;;;;;;8.20;100.00;101283.75;5017974;28;20032;-68
2023/10/23 06:33:53;;;;;;;29.23;13.45;;;;;;;8.19;100.00;101292.66;5025493;28;20386;-67
2023/10/23 06:36:18;;;;;;;32.13;13.70;;;;;;;8.16;100.00;101294.78;5027250;28;20159;-67
2023/10/23 06:38:43;;;;;;;16.02;10.65;;;;;;;8.14;100.00;101291.44;5022608;28;20026;-67
2023/10/23 06:41:08;;;;;;;20.25;8.23;;;;;;;8.09;100.00;101286.56;5021503;28;20037;-67
2023/10/23 06:43:38;;;;;;;10.70;7.18;;;;;;;8.14;100.00;101291.44;5020849;28;20018;-67
2023/10/23 06:46:04;;;;;;;15.27;8.60;;;;;;;8.11;100.00;101297.84;5015074;28;20042;-67
2023/10/23 06:48:32;;;;;;;28.40;8.00;;;;;;;8.09;100.00;101299.78;5029003;28;20033;-67
2023/10/23 06:50:58;;;;;;;14.93;5.05;;;;;;;8.08;100.00;101303.41;5013229;28;20224;-67
2023/10/23 06:53:24;;;;;;;22.77;6.18;;;;;;;8.07;100.00;101304.38;5011679;28;20391;-67
2023/10/23 06:55:50;;;;;;;13.68;5.25;;;;;;;8.09;100.00;101291.84;5014411;28;20566;-67
2023/10/23 06:58:16;;;;;;;15.15;5.22;;;;;;;8.12;100.00;101294.22;5025772;28;20021;-67
2023/10/23 07:00:41;;;;;;;20.38;5.03;;;;;;;8.10;100.00;101290.91;5015025;28;20021;-67
2023/10/23 07:03:06;;;;;;;17.15;5.07;;;;;;;8.10;100.00;101282.13;5011411;28;20022;-67
2023/10/23 07:05:32;;;;;;;20.70;5.22;;;;;;;8.10;100.00;101288.25;5017249;28;20036;-68
2023/10/23 07:07:57;;;;;;;20.77;6.05;;;;;;;8.10;100.00;101288.25;5013016;28;20025;-67
2023/10/23 07:10:22;;;;;;;20.63;7.00;;;;;;;8.12;100.00;101285.47;5018625;28;20033;-67
2023/10/23 07:12:47;;;;;;;42.67;7.70;;;;;;;8.09;100.00;101289.19;5016580;28;20025;-67
2023/10/23 07:15:13;;;;;;;28.35;7.55;;;;;;;8.03;100.00;101281.84;5018225;28;20041;-67
2023/10/23 07:17:38;;;;;;;29.17;7.72;;;;;;;8.06;100.00;101284.19;5008794;28;20034;-67
2023/10/23 07:20:06;;;;;;;36.63;7.75;;;;;;;8.10;100.00;101298.00;5010756;28;20037;-67
2023/10/23 07:22:32;;;;;;;36.42;6.90;;;;;;;8.11;100.00;101294.38;5013376;28;20503;-68
2023/10/23 07:24:57;;;;;;;26.40;6.10;;;;;;;8.10;100.00;101290.91;5011789;28;20030;-67
2023/10/23 07:27:23;;;;;;;19.98;6.50;;;;;;;8.17;100.00;101296.44;5011592;28;20064;-67
2023/10/23 07:29:48;;;;;;;17.08;6.63;;;;;;;8.21;100.00;101287.22;5024988;28;20082;-67
2023/10/23 07:32:13;;;;;;;20.50;6.93;;;;;;;8.25;100.00;101286.78;5023683;28;20029;-67
2023/10/23 07:34:38;;;;;;;11.68;6.75;;;;;;;8.33;100.00;101289.56;5010351;28;20487;-67
2023/10/23 07:37:04;;;;;;;15.65;6.63;;;;;;;8.36;100.00;101283.16;5010904;28;20498;-67
2023/10/23 07:39:29;;;;;;;12.75;6.88;;;;;;;8.43;100.00;101278.97;5015679;28;20022;-67
2023/10/23 07:41:54;;;;;;;12.10;7.63;;;;;;;8.50;100.00;101276.56;5010160;28;20038;-67
2023/10/23 07:44:20;;;;;;;13.30;8.05;;;;;;;8.61;100.00;101276.38;5018771;28;20025;-67
2023/10/23 07:46:46;;;;;;;12.93;7.80;;;;;;;8.72;100.00;101273.53;5008544;28;20029;-67
2023/10/23 07:49:11;;;;;;;11.70;7.30;;;;;;;8.80;100.00;101276.28;5014135;28;20056;-67
2023/10/23 07:51:38;;;;;;;10.18;6.72;;;;;;;8.90;100.00;101279.69;5012820;28;20380;-67
2023/10/23 07:54:03;;;;;;;9.68;6.45;;;;;;;8.95;100.00;101289.81;5008291;28;20030;-67
2023/10/23 07:56:28;;;;;;;9.38;6.07;;;;;;;8.89;100.00;101279.84;5014932;28;20018;-67
2023/10/23 07:58:54;;;;;;;11.32;6.53;;;;;;;9.06;100.00;101292.28;5010665;28;20032;-68
2023/10/23 08:01:19;;;;;;;10.48;7.03;;;;;;;9.14;100.00;101289.72;5008493;28;21386;-67
2023/10/23 08:03:44;;;;;;;11.23;7.05;;;;;;;9.11;100.00;101292.66;5017789;28;20022;-67
2023/10/23 08:06:10;;;;;;;11.48;6.63;;;;;;;9.22;100.00;101296.91;5015615;28;20037;-68
2023/10/23 08:08:37;;;;;;;12.98;8.10;;;;;;;9.29;100.00;101287.38;5008815;28;20024;-67
2023/10/23 08:11:04;;;;;;;9.57;6.82;;;;;;;9.38;100.00;101286.47;5011858;28;20095;-67
2023/10/23 08:13:30;;;;;;;16.85;7.57;;;;;;;9.44;100.00;101277.91;5021802;28;20025;-67
2023/10/23 08:15:55;;;;;;;12.55;7.47;;;;;;;9.54;100.00;101276.03;5016490;28;20026;-67
2023/10/23 08:18:20;;;;;;;11.05;7.47;;;;;;;9.59;100.00;101284.34;5013822;28;20034;-67
2023/10/23 08:20:46;;;;;;;9.55;6.68;;;;;;;9.55;100.00;101279.50;5012657;28;20080;-67
2023/10/23 08:23:11;;;;;;;13.52;7.80;;;;;;;9.57;100.00;101277.53;5017406;28;20025;-67
2023/10/23 08:25:36;;;;;;;12.32;7.28;;;;;;;9.63;100.00;101274.25;5012507;28;20643;-67
2023/10/23 08:28:02;;;;;;;13.05;7.45;;;;;;;9.66;100.00;101273.13;5010030;28;20021;-67
2023/10/23 08:30:28;;;;;;;13.20;7.20;;;;;;;9.73;100.00;101279.47;5019287;28;20087;-67
2023/10/23 08:32:53;;;;;;;11.35;7.97;;;;;;;9.78;100.00;101285.13;5016480;28;20025;-67
2023/10/23 08:35:19;;;;;;;12.45;7.45;;;;;;;9.85;100.00;101278.25;5021833;28;20431;-67
2023/10/23 08:37:45;;;;;;;14.52;7.57;;;;;;;9.88;100.00;101275.28;5014867;28;20013;-67
2023/10/23 08:40:11;;;;;;;13.10;7.55;;;;;;;9.93;100.00;101287.09;5009876;28;20026;-67
2023/10/23 08:42:37;;;;;;;15.60;7.70;;;;;;;9.96;100.00;101285.94;5013570;28;20009;-68
2023/10/23 08:45:03;;;;;;;12.93;7.55;;;;;;;9.98;100.00;101283.97;5017029;28;20553;-67
2023/10/23 08:47:28;;;;;;;13.18;8.07;;;;;;;10.07;100.00;101283.00;5018826;28;20387;-67
2023/10/23 08:49:56;;;;;;;16.67;7.80;;;;;;;10.14;100.00;101292.03;5028531;28;20113;-68
2023/10/23 08:52:24;;;;;;;15.02;7.95;;;;;;;10.15;100.00;101290.22;5023396;28;20041;-67
2023/10/23 08:54:52;;;;;;;13.60;7.78;;;;;;;10.19;100.00;101295.06;5012325;28;20033;-67
2023/10/23 08:57:19;;;;;;;17.70;7.72;;;;;;;10.30;100.00;101298.44;5020307;28;20017;-68
2023/10/23 08:59:44;;;;;;;16.35;8.30;;;;;;;10.37;100.00;101284.38;5020673;28;20017;-67
2023/10/23 09:02:10;;;;;;;12.65;7.63;;;;;;;10.41;100.00;101290.22;5011195;28;20021;-67
2023/10/23 09:04:35;;;;;;;11.85;8.00;;;;;;;10.52;100.00;101292.59;5030340;28;20026;-67
2023/10/23 09:07:00;;;;;;;13.65;7.95;;;;;;;10.58;100.00;101286.66;5021401;28;20117;-67
2023/10/23 09:09:26;;;;;;;13.20;7.80;;;;;;;10.66;100.00;101284.00;5019424;28;20422;-68
2023/10/23 09:11:52;;;;;;;14.13;8.40;;;;;;;10.70;100.00;101288.03;5013114;28;20053;-68
2023/10/23 09:14:24;;;;;;;15.93;7.93;;;;;;;10.79;100.00;101288.88;5029706;28;20052;-67
2023/10/23 09:16:51;;;;;;;13.43;8.13;;;;;;;10.81;100.00;101282.41;5019189;28;20038;-67
2023/10/23 09:19:25;;;;;;;16.63;8.30;;;;;;;10.90;100.00;101279.78;5029637;28;20037;-67
2023/10/23 09:21:56;;;;;;;16.17;8.07;;;;;;;10.88;100.00;101266.66;5027089;28;20022;-68
2023/10/23 09:24:22;;;;;;;15.57;8.27;;;;;;;10.88;100.00;101271.97;5020860;28;20017;-68
2023/10/23 09:26:49;;;;;;;19.60;8.00;;;;;;;10.99;100.00;101270.84;5030064;28;20673;-68
2023/10/23 09:29:14;;;;;;;12.13;7.80;;;;;;;10.99;100.00;101273.50;5021938;28;20025;-67
2023/10/23 09:31:42;;;;;;;13.32;7.13;;;;;;;11.01;100.00;101271.53;5016077;28;20036;-68
2023/10/23 09:34:08;;;;;;;15.43;6.97;;;;;;;11.05;100.00;101272.84;5013301;28;20037;-67
2023/10/23 09:36:34;;;;;;;17.55;7.25;;;;;;;11.06;100.00;101263.88;5014877;28;20018;-68
2023/10/23 09:39:00;;;;;;;15.20;7.40;;;;;;;11.13;100.00;101264.88;5035145;28;20025;-68
2023/10/23 09:41:27;;;;;;;14.82;7.10;;;;;;;11.22;100.00;101263.06;5017899;28;20368;-67
2023/10/23 09:43:55;;;;;;;15.68;7.47;;;;;;;11.27;100.00;101268.72;5024116;28;20164;-68
2023/10/23 09:46:24;;;;;;;15.07;7.13;;;;;;;11.31;100.00;101262.09;5015322;28;20033;-67
2023/10/23 09:48:51;;;;;;;17.15;7.30;;;;;;;11.35;100.00;101256.28;5027840;28;20036;-67
2023/10/23 09:51:18;;;;;;;14.95;6.55;;;;;;;11.44;100.00;101244.66;5028574;28;20119;-67
2023/10/23 09:53:58;;;;;;;13.13;6.78;;;;;;;11.49;100.00;101250.28;5027486;28;20465;-67
2023/10/23 09:56:26;;;;;;;17.15;7.45;;;;;;;11.57;100.00;101248.66;5011263;28;20029;-67
2023/10/23 09:58:58;;;;;;;13.93;7.50;;;;;;;11.62;100.00;101243.66;5011207;28;20083;-67
2023/10/23 10:01:31;;;;;;;15.73;9.13;;;;;;;11.69;100.00;101245.47;5014999;28;20029;-68
2023/10/23 10:04:03;;;;;;;19.20;10.90;;;;;;;11.72;100.00;101244.28;5016392;28;20084;-68
2023/10/23 10:06:31;;;;;;;24.65;9.70;;;;;;;11.73;100.00;101246.78;5010135;28;20483;-67
2023/10/23 10:08:57;;;;;;;20.15;9.75;;;;;;;11.74;100.00;101235.16;5010531;28;20022;-68
2023/10/23 10:11:25;;;;;;;15.40;8.90;;;;;;;11.80;100.00;101244.31;5024954;28;20034;-68
2023/10/23 10:13:51;;;;;;;17.90;8.80;;;;;;;11.85;100.00;101236.66;5011330;28;20508;-67
2023/10/23 10:16:17;;;;;;;15.73;7.32;;;;;;;11.85;100.00;101239.31;5028097;28;20021;-68
2023/10/23 10:18:42;;;;;;;14.50;6.53;;;;;;;11.86;100.00;101238.34;5027528;28;20104;-68
2023/10/23 10:21:10;;;;;;;20.40;6.85;;;;;;;11.92;100.00;101242.16;5015052;28;20028;-68
2023/10/23 10:23:36;;;;;;;13.82;7.50;;;;;;;11.98;100.00;101236.97;5032309;28;20032;-68
2023/10/23 10:26:03;;;;;;;13.88;6.85;;;;;;;11.98;100.00;101228.97;5013621;28;20030;-68
2023/10/23 10:28:29;;;;;;;16.92;7.35;;;;;;;12.01;100.00;101225.97;5010359;28;20022;-68
2023/10/23 10:30:54;;;;;;;19.80;6.70;;;;;;;12.05;100.00;101224.63;5023452;28;20025;-68
2023/10/23 10:33:31;;;;;;;16.17;6.70;;;;;;;12.09;100.00;101223.28;5009868;28;20099;-68
2023/10/23 10:35:57;;;;;;;12.00;6.05;;;;;;;12.12;100.00;101210.63;5028551;28;20040;-68
2023/10/23 10:38:25;;;;;;;15.25;6.97;;;;;;;12.16;100.00;101217.31;5016217;28;20052;-68
2023/10/23 10:41:17;;;;;;;14.75;6.47;;;;;;;12.24;100.00;101218.09;5009155;28;20173;-68
2023/10/23 10:43:45;;;;;;;14.85;6.47;;;;;;;12.23;100.00;101210.28;5010085;28;20021;-68
2023/10/23 10:46:26;;;;;;;17.98;6.38;;;;;;;12.24;100.00;101196.78;5025151;28;20022;-68
2023/10/23 10:48:53;;;;;;;13.75;7.38;;;;;;;12.36;100.00;101208.72;5020360;28;20030;-68
2023/10/23 10:51:25;;;;;;;15.60;6.50;;;;;;;12.37;100.00;101199.72;5014379;28;20017;-68
2023/10/23 10:53:58;;;;;;;14.98;7.50;;;;;;;12.47;100.00;101207.50;5009959;28;20515;-68
2023/10/23 10:56:23;;;;;;;15.23;7.03;;;;;;;12.51;100.00;101187.50;5019883;28;20057;-68
2023/10/23 10:58:49;;;;;;;21.70;7.65;;;;;;;12.56;100.00;101185.16;5021778;28;20842;-68
2023/10/23 11:01:14;;;;;;;17.30;7.85;;;;;;;12.57;100.00;101178.81;5011056;28;20030;-68
2023/10/23 11:03:41;;;;;;;21.02;7.13;;;;;;;12.53;100.00;101164.19;5012362;28;20030;-68
2023/10/23 11:06:07;;;;;;;17.35;7.00;;;;;;;12.59;100.00;101168.81;5011131;28;20049;-68
2023/10/23 11:08:34;;;;;;;21.52;8.73;;;;;;;12.63;100.00;101174.63;5018179;28;20033;-68
2023/10/23 11:11:04;;;;;;;13.82;6.43;;;;;;;12.61;100.00;101158.81;5024180;28;20079;-68